KHOU/HOU METAR and TAF weather

Enter ICAO airport designator
Station Type Date Time Source
KHOU METAR 2020/08/05 16:53 UTC NOAA

KHOU 051653Z 26004KT 10SM FEW030 FEW250 33/22 A3001 RMK AO2 SLP166 T03280222 $


Station Type Date Time Source
KHOU Decoded METAR 2020/08/05 16:53 UTC NOAA

HOUSTON HOBBY AIRPORT, TX, United States (KHOU) 29-38N 095-17W 36M
Aug 05, 2020 - 12:53 PM EDT / 2020.08.05 1653 UTC
Wind: from the W (260 degrees) at 5 MPH (4 KT):0
Visibility: 10 mile(s):0
Sky conditions: mostly clear
Temperature: 91.0 F (32.8 C)
Heat index: 98.1 F (36.7 C):1
Dew Point: 72.0 F (22.2 C)
Relative Humidity: 53%
Pressure (altimeter): 30.01 in. Hg (1016 hPa)
ob: KHOU 051653Z 26004KT 10SM FEW030 FEW250 33/22 A3001 RMK AO2 SLP166 T03280222
cycle: 17

Station Type Date Time Source
KHOU TAF 2020/08/05 15:04 UTC NOAA

TAF
AMD KHOU 051500Z 0515/0612 22006KT P6SM FEW020 SCT060
FM052000 17009KT P6SM VCTS SCT040CB BKN070
FM060100 17006KT P6SM BKN120

Example: see airport list